Time;durP1;ratioP1;P1;durP2;ratioP2;P2;SDS_P1;SDS_P2;PMS_P1;PMS_P2;Temp;Humidity;BMP_temperature;BMP_pressure;BME280_temperature;BME280_humidity;BME280_pressure;Samples;Min_cycle;Max_cycle;Signal;HPM_P1;HPM_P2
2022/03/04 00:01:19;;;;;;;0.10;0.10;;;1.10;1.00;226.50;231333.00;;;;5076516;28;20241;-71
2022/03/04 00:03:48;;;;;;;0.10;0.10;;;1.10;1.00;226.50;231333.00;;;;5087763;28;20910;-71
2022/03/04 00:06:16;;;;;;;0.10;0.10;;;1.10;1.00;226.50;231333.00;;;;5080258;28;20255;-71
2022/03/04 00:08:44;;;;;;;0.17;0.17;;;1.20;1.00;226.50;231333.00;;;;5085473;28;20197;-70
2022/03/04 00:11:12;;;;;;;0.10;0.10;;;1.20;1.00;226.50;231333.00;;;;5089170;28;20256;-70
2022/03/04 00:13:40;;;;;;;0.13;0.13;;;1.30;1.00;226.50;231333.00;;;;5090450;28;20181;-70
2022/03/04 00:16:08;;;;;;;0.10;0.10;;;1.30;1.00;226.50;231333.00;;;;5087136;28;20657;-71
2022/03/04 00:18:38;;;;;;;0.10;0.10;;;1.30;1.00;226.50;231333.00;;;;5077319;28;20286;-68
2022/03/04 00:21:09;;;;;;;0.10;0.10;;;1.30;1.00;226.50;231333.00;;;;5083184;28;20221;-68
2022/03/04 00:23:37;;;;;;;0.10;0.10;;;1.30;1.00;226.50;231333.00;;;;5080399;28;20720;-70
2022/03/04 00:26:07;;;;;;;0.10;0.10;;;1.30;1.00;226.50;231333.00;;;;5082296;28;20267;-70
2022/03/04 00:28:35;;;;;;;0.10;0.10;;;1.30;1.00;226.50;231333.00;;;;5087259;28;20815;-70
2022/03/04 00:31:03;;;;;;;0.10;0.10;;;1.30;1.00;226.50;231333.00;;;;5079936;28;20240;-71
2022/03/04 00:33:32;;;;;;;0.10;0.10;;;1.20;1.00;226.50;231333.00;;;;5073637;28;20697;-70
2022/03/04 00:36:01;;;;;;;0.10;0.10;;;1.30;1.00;226.50;231333.00;;;;5073720;28;20268;-70
2022/03/04 00:38:29;;;;;;;0.10;0.10;;;1.30;1.00;226.50;231333.00;;;;5081693;28;20204;-71
2022/03/04 00:40:58;;;;;;;0.10;0.10;;;1.30;1.00;226.50;231333.00;;;;5090484;28;20248;-71
2022/03/04 00:43:26;;;;;;;0.10;0.10;;;1.30;1.00;226.50;231333.00;;;;5077052;28;20222;-70
2022/03/04 00:45:54;;;;;;;0.10;0.10;;;1.40;1.00;226.50;231333.00;;;;5072720;28;20232;-70
2022/03/04 00:48:22;;;;;;;0.10;0.10;;;1.40;1.00;226.50;231333.00;;;;5082245;28;20197;-71
2022/03/04 00:50:50;;;;;;;0.10;0.10;;;1.40;99.90;226.50;231333.00;;;;5073105;28;20190;-71
2022/03/04 00:53:19;;;;;;;0.10;0.10;;;1.30;99.90;226.50;231333.00;;;;5085853;28;20185;-71
2022/03/04 00:55:47;;;;;;;0.10;0.10;;;1.40;99.90;226.50;231333.00;;;;5085936;28;20204;-70
2022/03/04 00:58:15;;;;;;;0.13;0.13;;;1.40;99.90;226.50;231333.00;;;;5085967;28;20193;-71
2022/03/04 01:00:44;;;;;;;0.10;0.10;;;1.40;99.90;226.50;231333.00;;;;5092692;28;20189;-68
2022/03/04 01:03:12;;;;;;;0.10;0.10;;;1.40;1.00;226.50;231333.00;;;;5080157;28;20221;-68
2022/03/04 01:05:40;;;;;;;0.10;0.10;;;1.40;99.90;226.50;231333.00;;;;5090610;28;20688;-68
2022/03/04 01:08:08;;;;;;;0.10;0.10;;;1.30;95.70;226.50;231333.00;;;;5081352;28;20600;-68
2022/03/04 01:10:38;;;;;;;0.10;0.10;;;1.30;99.90;226.50;231333.00;;;;5082861;28;20189;-69
2022/03/04 01:13:06;;;;;;;0.10;0.10;;;1.30;99.90;226.50;231333.00;;;;5090466;28;20193;-69
2022/03/04 01:15:40;;;;;;;0.20;0.20;;;1.30;99.90;226.50;231333.00;;;;5077662;28;20248;-69
2022/03/04 01:18:08;;;;;;;0.10;0.10;;;1.40;99.90;226.50;231333.00;;;;5078771;28;20548;-71
2022/03/04 01:20:36;;;;;;;0.10;0.10;;;1.40;48.00;226.50;231333.00;;;;5082358;28;20212;-71
2022/03/04 01:23:04;;;;;;;0.15;0.15;;;1.40;1.00;226.50;231333.00;;;;5078086;28;20228;-71
2022/03/04 01:25:33;;;;;;;0.10;0.10;;;1.40;1.00;226.50;231333.00;;;;5089739;28;20192;-71
2022/03/04 01:28:03;;;;;;;0.10;0.10;;;1.30;1.00;226.50;231333.00;;;;5082744;28;20185;-72
2022/03/04 01:30:31;;;;;;;0.10;0.10;;;1.30;1.00;226.50;231333.00;;;;5078809;28;20666;-70
2022/03/04 01:32:59;;;;;;;0.10;0.10;;;1.30;1.00;226.50;231333.00;;;;5082399;28;20210;-71
2022/03/04 01:35:27;;;;;;;0.13;0.13;;;1.30;1.00;226.50;231333.00;;;;5068921;28;20186;-71
2022/03/04 01:37:55;;;;;;;0.10;0.10;;;1.30;1.00;226.50;231333.00;;;;5077267;28;20619;-71
2022/03/04 01:40:23;;;;;;;0.20;0.20;;;1.30;1.00;226.50;231333.00;;;;5073277;28;20220;-71
2022/03/04 01:42:51;;;;;;;0.10;0.10;;;1.30;1.00;226.50;231333.00;;;;5085190;28;20216;-71
2022/03/04 01:45:22;;;;;;;0.10;0.10;;;1.30;1.00;226.50;231333.00;;;;5072660;28;20194;-71
2022/03/04 01:47:50;;;;;;;0.10;0.10;;;1.20;1.00;226.50;231333.00;;;;5072756;28;20198;-71
2022/03/04 01:50:18;;;;;;;0.10;0.10;;;1.20;1.00;226.50;231333.00;;;;5084351;28;20193;-71
2022/03/04 01:52:46;;;;;;;0.10;0.10;;;1.20;1.00;226.50;231333.00;;;;5068779;28;20213;-72
2022/03/04 01:55:14;;;;;;;0.20;0.20;;;1.20;1.00;226.50;231333.00;;;;5076853;28;20186;-71
2022/03/04 01:57:43;;;;;;;0.10;0.10;;;1.20;1.00;226.50;231333.00;;;;5072332;28;20194;-71
2022/03/04 02:00:16;;;;;;;0.10;0.10;;;1.20;1.00;226.50;231333.00;;;;5077677;28;20719;-71
2022/03/04 02:02:46;;;;;;;0.17;0.17;;;1.10;99.90;226.50;231333.00;;;;5091816;28;20275;-71
2022/03/04 02:05:15;;;;;;;0.20;0.20;;;1.10;1.00;226.50;231333.00;;;;5091830;28;20673;-71
2022/03/04 02:07:44;;;;;;;0.17;0.17;;;1.00;1.00;226.50;231333.00;;;;5079510;28;20200;-71
2022/03/04 02:10:12;;;;;;;0.10;0.10;;;0.90;1.00;226.50;231333.00;;;;5077627;28;20201;-71
2022/03/04 02:12:41;;;;;;;0.10;0.10;;;0.90;1.00;226.50;231333.00;;;;5076821;28;20232;-71
2022/03/04 02:15:10;;;;;;;0.10;0.10;;;0.90;1.00;226.50;231333.00;;;;5073419;28;20212;-71
2022/03/04 02:17:39;;;;;;;0.20;0.20;;;0.90;1.00;226.50;231333.00;;;;5070736;28;20608;-71
2022/03/04 02:20:10;;;;;;;0.17;0.17;;;0.90;1.00;226.50;231333.00;;;;5072129;28;20259;-72
2022/03/04 02:22:40;;;;;;;0.10;0.10;;;1.00;1.00;226.50;231333.00;;;;5075933;28;20225;-71
2022/03/04 02:25:09;;;;;;;0.10;0.10;;;1.00;1.00;226.50;231333.00;;;;5080425;28;20197;-71
2022/03/04 02:27:37;;;;;;;0.17;0.17;;;1.00;1.00;226.50;231333.00;;;;5079305;28;20192;-71
2022/03/04 02:30:07;;;;;;;0.10;0.10;;;0.90;1.00;226.50;231333.00;;;;5078655;28;20185;-71
2022/03/04 02:32:35;;;;;;;0.10;0.10;;;0.90;1.00;226.50;231333.00;;;;5076866;28;20205;-71
2022/03/04 02:35:04;;;;;;;0.10;0.10;;;0.90;1.00;226.50;231333.00;;;;5073934;28;20249;-71
2022/03/04 02:37:34;;;;;;;0.10;0.10;;;0.90;1.00;226.50;231333.00;;;;5072212;28;20213;-71
2022/03/04 02:40:05;;;;;;;0.10;0.10;;;0.90;1.00;226.50;231333.00;;;;5067981;28;20216;-70
2022/03/04 02:42:33;;;;;;;0.10;0.10;;;0.90;1.00;226.50;231333.00;;;;5072152;28;20290;-71
2022/03/04 02:45:01;;;;;;;0.20;0.20;;;0.90;1.00;226.50;231333.00;;;;5078230;28;20235;-70
2022/03/04 02:47:29;;;;;;;0.10;0.10;;;1.00;1.00;226.50;231333.00;;;;5076605;28;20249;-71
2022/03/04 02:49:57;;;;;;;0.10;0.10;;;0.90;1.00;226.50;231333.00;;;;5076572;28;20247;-70
2022/03/04 02:52:24;;;;;;;0.10;0.10;;;0.90;1.00;226.50;231333.00;;;;5075503;28;20244;-71
2022/03/04 02:54:52;;;;;;;0.10;0.10;;;0.90;1.00;226.50;231333.00;;;;5088092;28;20240;-71
2022/03/04 02:57:22;;;;;;;0.20;0.20;;;0.80;1.00;226.50;231333.00;;;;5075554;28;20201;-71
2022/03/04 02:59:49;;;;;;;0.10;0.10;;;0.90;1.00;226.50;231333.00;;;;5077252;28;20771;-71
2022/03/04 03:02:17;;;;;;;0.10;0.10;;;0.90;1.00;226.50;231333.00;;;;5073989;28;20209;-71
2022/03/04 03:04:46;;;;;;;0.10;0.10;;;1.00;1.00;226.50;231333.00;;;;5073183;28;20213;-71
2022/03/04 03:07:14;;;;;;;0.13;0.13;;;1.00;1.00;226.50;231333.00;;;;5080627;28;20190;-71
2022/03/04 03:09:42;;;;;;;0.10;0.10;;;1.00;1.00;226.50;231333.00;;;;5076358;28;20226;-71
2022/03/04 03:12:10;;;;;;;0.10;0.10;;;1.00;1.00;226.50;231333.00;;;;5071652;28;20232;-71
2022/03/04 03:14:42;;;;;;;0.10;0.10;;;1.00;1.00;226.50;231333.00;;;;5079976;28;20280;-71
2022/03/04 03:17:10;;;;;;;0.10;0.10;;;1.00;1.00;226.50;231333.00;;;;5075369;28;20663;-71
2022/03/04 03:19:39;;;;;;;0.10;0.10;;;1.00;1.00;226.50;231333.00;;;;5082002;28;20208;-71
2022/03/04 03:22:07;;;;;;;0.10;0.10;;;1.00;1.00;226.50;231333.00;;;;5077270;28;20279;-71
2022/03/04 03:24:34;;;;;;;0.10;0.10;;;1.10;1.00;226.50;231333.00;;;;5078845;28;20348;-71
2022/03/04 03:27:03;;;;;;;0.10;0.10;;;1.20;1.00;226.50;231333.00;;;;5089113;28;20246;-71
2022/03/04 03:29:31;;;;;;;0.10;0.10;;;1.20;1.00;226.50;231333.00;;;;5089706;28;20728;-71
2022/03/04 03:32:00;;;;;;;0.10;0.10;;;1.20;1.00;226.50;231333.00;;;;5088289;28;20208;-71
2022/03/04 03:34:28;;;;;;;0.10;0.10;;;1.20;1.00;226.50;231333.00;;;;5081175;28;20219;-71
2022/03/04 03:36:57;;;;;;;0.10;0.10;;;1.10;1.00;226.50;231333.00;;;;5088346;28;20196;-72
2022/03/04 03:39:25;;;;;;;0.10;0.10;;;1.10;99.90;226.50;231333.00;;;;5083915;28;20247;-72
2022/03/04 03:41:53;;;;;;;0.20;0.20;;;1.20;99.90;226.50;231333.00;;;;5067912;28;20556;-72
2022/03/04 03:44:21;;;;;;;0.10;0.10;;;1.20;1.00;226.50;231333.00;;;;5081662;28;20318;-72
2022/03/04 03:46:49;;;;;;;0.10;0.10;;;1.30;1.00;226.50;231333.00;;;;5090211;28;20251;-72
2022/03/04 03:49:18;;;;;;;0.10;0.10;;;1.30;99.90;226.50;231333.00;;;;5073212;28;20200;-72
2022/03/04 03:51:46;;;;;;;0.20;0.20;;;1.30;99.90;226.50;231333.00;;;;5070838;28;20270;-73
2022/03/04 03:54:14;;;;;;;0.10;0.10;;;1.30;99.90;226.50;231333.00;;;;5070589;28;20216;-72
2022/03/04 03:56:43;;;;;;;0.10;0.10;;;1.20;99.90;226.50;231333.00;;;;5078250;28;20190;-72
2022/03/04 03:59:11;;;;;;;0.17;0.17;;;1.30;99.90;226.50;231333.00;;;;5070229;28;20193;-71
2022/03/04 04:01:39;;;;;;;0.20;0.20;;;1.30;99.90;226.50;231333.00;;;;5067873;28;20209;-72
2022/03/04 04:04:08;;;;;;;0.10;0.10;;;1.20;99.90;226.50;231333.00;;;;5082420;28;20223;-71
2022/03/04 04:06:38;;;;;;;0.10;0.10;;;1.20;99.90;226.50;231333.00;;;;5089407;28;21004;-71
2022/03/04 04:09:06;;;;;;;0.10;0.10;;;1.20;99.90;226.50;231333.00;;;;5083993;28;20205;-71
2022/03/04 04:11:35;;;;;;;0.10;0.10;;;1.30;99.90;226.50;231333.00;;;;5075587;28;20221;-71
2022/03/04 04:14:03;;;;;;;0.10;0.10;;;1.30;99.90;226.50;231333.00;;;;5077101;28;20196;-71
2022/03/04 04:16:32;;;;;;;0.10;0.10;;;1.30;99.90;226.50;231333.00;;;;5088332;28;20882;-71
2022/03/04 04:19:01;;;;;;;0.10;0.10;;;1.40;96.10;226.50;231333.00;;;;5086550;28;20200;-71
2022/03/04 04:21:29;;;;;;;0.10;0.10;;;1.40;2.50;226.50;231333.00;;;;5072468;28;20936;-70
2022/03/04 04:23:59;;;;;;;0.20;0.20;;;1.40;8.60;226.50;231333.00;;;;5078802;28;20213;-70
2022/03/04 04:26:27;;;;;;;0.10;0.10;;;1.40;11.60;226.50;231333.00;;;;5087644;28;20250;-70
2022/03/04 04:28:55;;;;;;;0.10;0.10;;;1.30;1.00;226.50;231333.00;;;;5078589;28;20277;-70
2022/03/04 04:31:23;;;;;;;0.10;0.10;;;1.40;1.00;226.50;231333.00;;;;5068818;28;20218;-71
2022/03/04 04:33:52;;;;;;;0.20;0.20;;;1.40;1.00;226.50;231333.00;;;;5069302;28;20193;-71
2022/03/04 04:36:20;;;;;;;0.10;0.10;;;1.40;1.00;226.50;231333.00;;;;5089303;28;20243;-71
2022/03/04 04:38:48;;;;;;;0.10;0.10;;;1.40;1.00;226.50;231333.00;;;;5076701;28;20194;-71
2022/03/04 04:41:18;;;;;;;0.20;0.20;;;1.40;1.00;226.50;231333.00;;;;5071810;28;20209;-71
2022/03/04 04:43:46;;;;;;;0.10;0.10;;;1.40;1.00;226.50;231333.00;;;;5075042;28;20240;-71
2022/03/04 04:46:14;;;;;;;0.10;0.10;;;1.40;1.00;226.50;231333.00;;;;5087807;28;20194;-71
2022/03/04 04:48:42;;;;;;;0.10;0.10;;;1.50;1.00;226.50;231333.00;;;;5081481;28;20318;-71
2022/03/04 04:51:10;;;;;;;0.10;0.10;;;1.50;1.00;226.50;231333.00;;;;5073863;28;20263;-70
2022/03/04 04:53:39;;;;;;;0.10;0.10;;;1.50;1.00;226.50;231333.00;;;;5084225;28;20194;-70
2022/03/04 04:56:07;;;;;;;0.10;0.10;;;1.40;1.00;226.50;231333.00;;;;5074485;28;20201;-70
2022/03/04 04:58:36;;;;;;;0.10;0.10;;;1.40;1.00;226.50;231333.00;;;;5072802;28;20636;-70
2022/03/04 05:01:04;;;;;;;0.10;0.10;;;1.50;1.00;226.50;231333.00;;;;5074736;28;20765;-71
2022/03/04 05:03:32;;;;;;;0.10;0.10;;;1.40;1.00;226.50;231333.00;;;;5073628;28;20194;-71
2022/03/04 05:06:00;;;;;;;0.10;0.10;;;1.40;99.90;226.50;231333.00;;;;5082459;28;20218;-71
2022/03/04 05:08:29;;;;;;;0.10;0.10;;;1.40;1.00;226.50;231333.00;;;;5084257;28;20934;-71
2022/03/04 05:10:58;;;;;;;0.10;0.10;;;1.50;1.00;226.50;231333.00;;;;5092826;28;20213;-71
2022/03/04 05:13:26;;;;;;;0.10;0.10;;;1.50;1.00;226.50;231333.00;;;;5092678;28;20197;-71
2022/03/04 05:15:55;;;;;;;0.10;0.10;;;1.50;99.90;226.50;231333.00;;;;5077656;28;20251;-70
2022/03/04 05:18:23;;;;;;;0.10;0.10;;;1.50;99.90;226.50;231333.00;;;;5075402;28;20236;-70
2022/03/04 05:20:51;;;;;;;0.15;0.15;;;1.50;99.90;226.50;231333.00;;;;5074359;28;20263;-70
2022/03/04 05:26:01;;;;;;;0.10;0.10;;;1.60;99.90;226.50;231333.00;;;;5092005;28;20232;-71
2022/03/04 05:28:29;;;;;;;0.10;0.10;;;1.60;99.90;226.50;231333.00;;;;5090854;28;20255;-71
2022/03/04 05:30:59;;;;;;;0.10;0.10;;;1.50;99.90;226.50;231333.00;;;;5074080;28;20224;-70
2022/03/04 05:33:27;;;;;;;0.20;0.20;;;1.50;99.90;226.50;231333.00;;;;5073244;28;20656;-70
2022/03/04 05:35:55;;;;;;;0.10;0.10;;;1.60;99.90;226.50;231333.00;;;;5088892;28;20208;-70
2022/03/04 05:38:23;;;;;;;0.10;0.10;;;1.60;99.90;226.50;231333.00;;;;5084678;28;20200;-70
2022/03/04 05:40:51;;;;;;;0.15;0.15;;;1.60;1.00;226.50;231333.00;;;;5090226;28;20238;-70
2022/03/04 05:43:19;;;;;;;0.10;0.10;;;1.50;1.00;226.50;231333.00;;;;5081350;28;20720;-71
2022/03/04 05:45:48;;;;;;;0.10;0.10;;;1.60;1.00;226.50;231333.00;;;;5085268;28;20213;-71
2022/03/04 05:48:17;;;;;;;0.10;0.10;;;1.60;1.00;226.50;231333.00;;;;5072117;28;20235;-71
2022/03/04 05:50:45;;;;;;;0.10;0.10;;;1.60;1.00;226.50;231333.00;;;;5077179;28;20200;-71
2022/03/04 05:53:13;;;;;;;0.10;0.10;;;1.60;1.00;226.50;231333.00;;;;5075070;28;20626;-71
2022/03/04 05:55:41;;;;;;;0.10;0.10;;;1.60;1.00;226.50;231333.00;;;;5072354;28;20239;-71
2022/03/04 05:58:10;;;;;;;0.00;0.00;;;1.60;99.90;226.50;231333.00;;;;5072727;28;20194;-72
2022/03/04 06:00:38;;;;;;;0.10;0.10;;;1.70;99.90;226.50;231333.00;;;;5073431;28;20201;-71
2022/03/04 06:03:07;;;;;;;0.10;0.10;;;1.70;99.90;226.50;231333.00;;;;5073362;28;20200;-72
2022/03/04 06:05:37;;;;;;;0.10;0.10;;;1.70;99.90;226.50;231333.00;;;;5074383;28;20287;-71
2022/03/04 06:08:05;;;;;;;0.10;0.10;;;1.70;99.90;226.50;231333.00;;;;5073731;28;20435;-72
2022/03/04 06:10:33;;;;;;;0.10;0.10;;;1.60;99.90;226.50;231333.00;;;;5082790;28;20307;-71
2022/03/04 06:13:01;;;;;;;0.10;0.10;;;1.70;99.90;226.50;231333.00;;;;5084142;28;20270;-71
2022/03/04 06:15:29;;;;;;;0.10;0.10;;;1.70;99.90;226.50;231333.00;;;;5080558;28;20254;-72
2022/03/04 06:17:57;;;;;;;0.10;0.10;;;1.70;99.90;226.50;231333.00;;;;5088931;28;20182;-71
2022/03/04 06:20:25;;;;;;;0.10;0.10;;;1.80;99.90;226.50;231333.00;;;;5072486;28;20213;-72
2022/03/04 06:22:55;;;;;;;0.10;0.10;;;1.70;75.40;226.50;231333.00;;;;5081888;28;20266;-72
2022/03/04 06:25:23;;;;;;;0.10;0.10;;;1.70;24.60;226.50;231333.00;;;;5082336;28;20213;-71
2022/03/04 06:27:54;;;;;;;0.10;0.10;;;1.70;99.90;226.50;231333.00;;;;5074598;28;20294;-70
2022/03/04 06:30:23;;;;;;;0.10;0.10;;;1.70;99.90;226.50;231333.00;;;;5073259;28;20194;-70
2022/03/04 06:33:29;;;;;;;0.10;0.10;;;1.80;99.90;226.50;231333.00;;;;5067274;28;20241;-71
2022/03/04 06:35:41;;;;;;;0.10;0.10;;;1.80;99.90;226.50;231333.00;;;;5075759;28;20250;-71
2022/03/04 06:38:10;;;;;;;0.10;0.10;;;1.80;93.40;226.50;231333.00;;;;5077721;28;20193;-71
2022/03/04 06:40:39;;;;;;;0.10;0.10;;;1.90;19.30;226.50;231333.00;;;;5072546;28;20224;-71
2022/03/04 06:43:08;;;;;;;0.10;0.10;;;1.90;1.00;226.50;231333.00;;;;5079036;28;20185;-71
2022/03/04 06:45:37;;;;;;;0.20;0.20;;;1.90;1.00;226.50;231333.00;;;;5072070;28;20217;-71
2022/03/04 06:48:06;;;;;;;0.10;0.10;;;1.90;1.00;226.50;231333.00;;;;5071860;28;20265;-71
2022/03/04 06:50:34;;;;;;;0.10;0.10;;;1.90;1.00;226.50;231333.00;;;;5078264;28;20208;-71
2022/03/04 06:53:02;;;;;;;0.10;0.10;;;1.90;1.00;226.50;231333.00;;;;5074043;28;20197;-72
2022/03/04 06:55:31;;;;;;;0.10;0.10;;;1.90;1.00;226.50;231333.00;;;;5074423;28;20197;-72
2022/03/04 06:58:00;;;;;;;0.10;0.10;;;1.90;1.00;226.50;231333.00;;;;5080239;28;20722;-71
2022/03/04 07:00:29;;;;;;;0.10;0.10;;;2.00;1.00;226.50;231333.00;;;;5078377;28;20186;-72
2022/03/04 07:03:01;;;;;;;0.10;0.10;;;2.00;1.00;226.50;231333.00;;;;5071529;28;20213;-72
2022/03/04 07:05:29;;;;;;;0.10;0.10;;;1.90;1.00;226.50;231333.00;;;;5069967;28;20316;-72
2022/03/04 07:07:57;;;;;;;0.10;0.10;;;1.90;1.00;226.50;231333.00;;;;5071319;28;20202;-72
2022/03/04 07:10:26;;;;;;;0.10;0.10;;;2.00;1.00;226.50;231333.00;;;;5074845;28;20256;-71
2022/03/04 07:12:55;;;;;;;0.10;0.10;;;2.00;1.00;226.50;231333.00;;;;5074211;28;20614;-72
2022/03/04 07:15:23;;;;;;;0.10;0.10;;;1.90;1.00;226.50;231333.00;;;;5077647;28;20727;-73
2022/03/04 07:17:51;;;;;;;0.13;0.13;;;2.00;75.90;226.50;231333.00;;;;5076711;28;20201;-73
2022/03/04 07:20:19;;;;;;;0.10;0.10;;;1.90;4.30;226.50;231333.00;;;;5068783;28;20278;-72
2022/03/04 07:22:47;;;;;;;0.10;0.10;;;1.90;99.90;226.50;231333.00;;;;5072624;28;20227;-72
2022/03/04 07:25:16;;;;;;;0.10;0.10;;;2.00;99.90;226.50;231333.00;;;;5072419;28;20225;-69
2022/03/04 07:27:44;;;;;;;0.10;0.10;;;2.00;99.90;226.50;231333.00;;;;5082035;28;20184;-69
2022/03/04 07:30:17;;;;;;;0.10;0.10;;;2.00;99.90;226.50;231333.00;;;;5082996;28;20196;-69
2022/03/04 07:32:46;;;;;;;0.10;0.10;;;2.10;99.90;226.50;231333.00;;;;5086400;28;20254;-70
2022/03/04 07:35:15;;;;;;;0.10;0.10;;;2.20;99.90;226.50;231333.00;;;;5082069;28;20190;-70
2022/03/04 07:37:44;;;;;;;0.10;0.10;;;2.20;99.90;226.50;231333.00;;;;5072509;28;20193;-70
2022/03/04 07:40:14;;;;;;;0.10;0.10;;;2.20;99.90;226.50;231333.00;;;;5073705;28;20185;-71
2022/03/04 07:42:43;;;;;;;0.10;0.10;;;2.30;99.90;226.50;231333.00;;;;5080605;28;20243;-70
2022/03/04 07:45:14;;;;;;;0.20;0.20;;;2.30;99.90;226.50;231333.00;;;;5079047;28;20197;-70
2022/03/04 07:47:44;;;;;;;0.10;0.10;;;2.30;1.00;226.50;231333.00;;;;5090232;28;20197;-70
2022/03/04 07:50:14;;;;;;;0.13;0.13;;;2.30;1.00;226.50;231333.00;;;;5090738;28;20246;-70
2022/03/04 07:52:43;;;;;;;0.15;0.15;;;2.30;1.00;226.50;231333.00;;;;5079872;28;20212;-70
2022/03/04 07:55:14;;;;;;;0.10;0.10;;;2.30;1.00;226.50;231333.00;;;;5070709;28;20198;-70
2022/03/04 07:57:42;;;;;;;0.20;0.20;;;2.30;1.00;226.50;231333.00;;;;5070726;28;20193;-68
2022/03/04 08:00:15;;;;;;;0.10;0.10;;;2.30;1.00;226.50;231333.00;;;;5075465;28;20197;-71
2022/03/04 08:02:43;;;;;;;0.10;0.10;;;2.30;1.00;226.50;231333.00;;;;5067719;28;20751;-70
2022/03/04 08:05:12;;;;;;;0.10;0.10;;;2.30;1.00;226.50;231333.00;;;;5070773;28;20193;-71
2022/03/04 08:07:40;;;;;;;0.10;0.10;;;2.30;1.00;226.50;231333.00;;;;5079879;28;20278;-70
2022/03/04 08:10:11;;;;;;;0.10;0.10;;;2.30;1.00;226.50;231333.00;;;;5088508;28;20193;-71
2022/03/04 08:12:40;;;;;;;0.10;0.10;;;2.40;1.00;226.50;231333.00;;;;5080914;28;20267;-71
2022/03/04 08:15:12;;;;;;;0.10;0.10;;;2.40;1.00;226.50;231333.00;;;;5079314;28;20239;-71
2022/03/04 08:17:43;;;;;;;0.10;0.10;;;2.50;1.00;226.50;231333.00;;;;5089797;28;20196;-70
2022/03/04 08:20:11;;;;;;;0.10;0.10;;;2.50;1.00;226.50;231333.00;;;;5074343;28;20302;-71
2022/03/04 08:22:40;;;;;;;0.10;0.10;;;2.50;1.00;226.50;231333.00;;;;5081661;28;20621;-70
2022/03/04 08:25:09;;;;;;;0.10;0.10;;;2.50;1.00;226.50;231333.00;;;;5090851;28;20191;-70
2022/03/04 08:27:38;;;;;;;0.10;0.10;;;2.60;1.00;226.50;231333.00;;;;5091016;28;20658;-70
2022/03/04 08:30:09;;;;;;;0.15;0.15;;;2.60;1.00;226.50;231333.00;;;;5074208;28;20609;-70
2022/03/04 08:32:38;;;;;;;0.10;0.10;;;2.60;1.00;226.50;231333.00;;;;5081667;28;20220;-70
2022/03/04 08:35:09;;;;;;;0.10;0.10;;;2.60;99.90;226.50;231333.00;;;;5074158;28;20200;-70
2022/03/04 08:37:37;;;;;;;0.10;0.10;;;2.60;99.90;226.50;231333.00;;;;5082086;28;20197;-70
2022/03/04 08:40:09;;;;;;;0.10;0.10;;;2.60;99.90;226.50;231333.00;;;;5071952;28;20193;-70
2022/03/04 08:42:40;;;;;;;0.10;0.10;;;2.60;99.90;226.50;231333.00;;;;5083154;28;20209;-70
2022/03/04 08:45:10;;;;;;;0.10;0.10;;;2.70;99.90;226.50;231333.00;;;;5081174;28;20573;-71
2022/03/04 08:47:45;;;;;;;0.13;0.13;;;2.70;99.90;226.50;231333.00;;;;5083990;28;20757;-70
2022/03/04 08:50:17;;;;;;;0.10;0.10;;;2.70;99.90;226.50;231333.00;;;;5082799;28;20197;-70
2022/03/04 08:52:45;;;;;;;0.10;0.10;;;2.70;99.90;226.50;231333.00;;;;5081638;28;20552;-70
2022/03/04 08:55:15;;;;;;;0.10;0.10;;;2.70;99.90;226.50;231333.00;;;;5080206;28;20197;-69
2022/03/04 08:57:45;;;;;;;0.10;0.10;;;2.80;99.90;226.50;231333.00;;;;5079136;28;20734;-69
2022/03/04 09:00:16;;;;;;;0.10;0.10;;;2.80;99.90;226.50;231333.00;;;;5071824;28;20196;-70
2022/03/04 09:02:45;;;;;;;0.10;0.10;;;2.80;99.90;226.50;231333.00;;;;5080899;28;20224;-70
2022/03/04 09:05:15;;;;;;;0.20;0.20;;;2.80;99.90;226.50;231333.00;;;;5071030;28;20916;-69
2022/03/04 09:07:43;;;;;;;0.10;0.10;;;2.80;99.00;226.50;231333.00;;;;5079379;28;20224;-70
2022/03/04 09:10:11;;;;;;;0.10;0.10;;;2.80;99.90;226.50;231333.00;;;;5069571;28;20594;-69
2022/03/04 09:12:40;;;;;;;0.10;0.10;;;2.70;99.90;226.50;231333.00;;;;5076476;28;20259;-70
2022/03/04 09:15:09;;;;;;;0.10;0.10;;;2.70;99.90;226.50;231333.00;;;;5077146;28;20200;-70
2022/03/04 09:17:39;;;;;;;0.10;0.10;;;2.80;1.00;226.50;231333.00;;;;5081331;28;20193;-70
2022/03/04 09:20:08;;;;;;;0.10;0.10;;;2.80;1.00;226.50;231333.00;;;;5078678;28;20205;-69
2022/03/04 09:22:38;;;;;;;0.13;0.13;;;2.90;99.90;226.50;231333.00;;;;5073793;28;20289;-69
2022/03/04 09:25:08;;;;;;;0.10;0.10;;;2.90;99.90;226.50;231333.00;;;;5086117;28;20220;-69
2022/03/04 09:27:36;;;;;;;0.10;0.10;;;3.00;99.90;226.50;231333.00;;;;5085032;28;20221;-70
2022/03/04 09:30:05;;;;;;;0.20;0.20;;;3.10;1.00;226.50;231333.00;;;;5073480;28;20247;-69
2022/03/04 09:32:33;;;;;;;0.10;0.10;;;3.10;1.00;226.50;231333.00;;;;5074257;28;20221;-69
2022/03/04 09:35:01;;;;;;;0.10;0.10;;;3.10;1.00;226.50;231333.00;;;;5089218;28;20193;-69
2022/03/04 09:37:29;;;;;;;0.10;0.10;;;3.10;1.00;226.50;231333.00;;;;5079454;28;20220;-69
2022/03/04 09:40:02;;;;;;;0.10;0.10;;;3.00;1.00;226.50;231333.00;;;;5072370;28;20255;-70
2022/03/04 09:42:33;;;;;;;0.10;0.10;;;3.00;1.00;226.50;231333.00;;;;5065585;28;20221;-69
2022/03/04 09:45:03;;;;;;;0.10;0.10;;;3.00;1.00;226.50;231333.00;;;;5074816;28;20236;-69
2022/03/04 09:47:32;;;;;;;0.10;0.10;;;3.00;1.00;226.50;231333.00;;;;5061340;28;20687;-70
2022/03/04 09:50:02;;;;;;;0.10;0.10;;;3.00;18.80;226.50;231333.00;;;;5074446;28;20736;-69
2022/03/04 09:52:31;;;;;;;0.10;0.10;;;3.00;11.90;226.50;231333.00;;;;5071723;28;20214;-69
2022/03/04 09:55:00;;;;;;;0.10;0.10;;;2.80;99.90;226.50;231333.00;;;;5073601;28;20193;-69
2022/03/04 09:57:29;;;;;;;0.10;0.10;;;2.80;99.90;226.50;231333.00;;;;5073547;28;20451;-70
2022/03/04 09:59:57;;;;;;;0.10;0.10;;;2.90;99.90;226.50;231333.00;;;;5073208;28;20187;-71
2022/03/04 10:02:26;;;;;;;0.10;0.10;;;2.90;99.90;226.50;231333.00;;;;5072696;28;20249;-71
2022/03/04 10:05:02;;;;;;;0.10;0.10;;;2.90;99.90;226.50;231333.00;;;;5083177;28;20198;-71
2022/03/04 10:07:41;;;;;;;0.10;0.10;;;2.90;99.90;226.50;231333.00;;;;5078193;28;20274;-71
2022/03/04 10:10:15;;;;;;;0.10;0.10;;;2.90;36.00;226.50;231333.00;;;;5077388;28;20196;-71
2022/03/04 10:12:51;;;;;;;0.10;0.10;;;2.90;1.00;226.50;231333.00;;;;5069773;28;20214;-71
2022/03/04 10:15:20;;;;;;;0.10;0.10;;;2.90;1.00;226.50;231333.00;;;;5089714;28;20612;-72
2022/03/04 10:18:03;;;;;;;0.10;0.10;;;2.90;1.00;226.50;231333.00;;;;5075928;28;20198;-71
2022/03/04 10:20:38;;;;;;;0.10;0.10;;;2.90;1.00;226.50;231333.00;;;;5089409;28;20670;-72
2022/03/04 10:23:18;;;;;;;0.10;0.10;;;2.80;1.00;226.50;231333.00;;;;5087625;28;20249;-71
2022/03/04 10:25:51;;;;;;;0.10;0.10;;;2.90;1.00;226.50;231333.00;;;;5072131;28;20199;-71
2022/03/04 10:28:24;;;;;;;0.10;0.10;;;2.90;1.00;226.50;231333.00;;;;5072291;28;20213;-71
2022/03/04 10:30:55;;;;;;;0.10;0.10;;;2.90;1.00;226.50;231333.00;;;;5076359;28;20215;-71
2022/03/04 10:33:43;;;;;;;0.10;0.10;;;2.90;1.00;226.50;231333.00;;;;5083077;28;20280;-71
2022/03/04 10:36:13;;;;;;;0.10;0.10;;;2.90;1.00;226.50;231333.00;;;;5077252;28;20217;-71
2022/03/04 10:38:43;;;;;;;0.10;0.10;;;2.90;1.00;226.50;231333.00;;;;5077354;28;20596;-71
2022/03/04 10:41:25;;;;;;;0.10;0.10;;;2.90;1.00;226.50;231333.00;;;;5071180;28;20221;-71
2022/03/04 10:43:54;;;;;;;0.10;0.10;;;2.90;1.00;226.50;231333.00;;;;5072782;28;20194;-71
2022/03/04 10:46:23;;;;;;;0.10;0.10;;;2.90;1.00;226.50;231333.00;;;;5071836;28;20235;-71
2022/03/04 10:48:54;;;;;;;0.10;0.10;;;2.90;1.00;226.50;231333.00;;;;5073568;28;20232;-71
2022/03/04 10:51:37;;;;;;;0.13;0.13;;;2.90;1.00;226.50;231333.00;;;;5082921;28;20267;-71
2022/03/04 10:54:16;;;;;;;0.10;0.10;;;2.90;1.00;226.50;231333.00;;;;5084184;28;20200;-71
2022/03/04 10:56:52;;;;;;;0.10;0.10;;;2.90;99.90;226.50;231333.00;;;;5071624;28;20209;-71
2022/03/04 10:59:22;;;;;;;0.10;0.10;;;3.00;99.90;226.50;231333.00;;;;5073325;28;20259;-71
2022/03/04 11:01:55;;;;;;;0.08;0.08;;;3.00;99.90;226.50;231333.00;;;;5080177;28;20622;-71
2022/03/04 11:04:24;;;;;;;0.10;0.10;;;3.00;92.80;226.50;231333.00;;;;5073075;28;20193;-71